createdAt,value
2023-03-12T00:00:04.346Z,0.89
2023-03-12T00:02:54.837Z,0.88
2023-03-12T00:05:42.341Z,0.93
2023-03-12T00:08:28.794Z,1.03
2023-03-12T00:11:17.206Z,1.05
2023-03-12T00:14:03.967Z,1.04
2023-03-12T00:16:51.670Z,1.12
2023-03-12T00:19:37.994Z,1.16
2023-03-12T00:22:25.627Z,1.21
2023-03-12T00:25:14.831Z,1.27
2023-03-12T00:28:01.212Z,1.35
2023-03-12T00:30:47.490Z,1.40
2023-03-12T00:33:35.233Z,1.40
2023-03-12T00:36:24.994Z,1.38
2023-03-12T00:39:11.490Z,1.44
2023-03-12T00:41:57.928Z,1.44
2023-03-12T00:44:44.448Z,1.46
2023-03-12T00:47:31.426Z,1.44
2023-03-12T00:50:19.364Z,1.40
2023-03-12T00:53:06.118Z,1.37
2023-03-12T00:55:52.722Z,1.36
2023-03-12T00:58:39.127Z,1.37
2023-03-12T01:01:27.573Z,1.36
2023-03-12T01:04:14.401Z,1.39
2023-03-12T01:07:02.293Z,1.34
2023-03-12T01:09:48.855Z,1.42
2023-03-12T01:12:35.451Z,1.42
2023-03-12T01:15:21.960Z,1.37
2023-03-12T01:18:08.430Z,1.42
2023-03-12T01:20:55.232Z,1.47
2023-03-12T01:23:42.850Z,1.46
2023-03-12T01:26:29.273Z,1.46
2023-03-12T01:29:15.699Z,1.48
2023-03-12T01:32:02.067Z,1.53
2023-03-12T01:34:48.593Z,1.57
2023-03-12T01:37:35.381Z,1.60
2023-03-12T01:40:27.803Z,1.64
2023-03-12T01:43:25.792Z,1.58
2023-03-12T01:46:25.339Z,1.53
2023-03-12T01:49:16.991Z,1.54
2023-03-12T01:52:05.755Z,1.59
2023-03-12T01:55:02.595Z,1.61
2023-03-12T01:57:56.184Z,1.62
2023-03-12T02:00:42.804Z,1.70
2023-03-12T02:03:30.034Z,1.63
2023-03-12T02:06:20.270Z,1.59
2023-03-12T02:09:08.790Z,1.64
2023-03-12T02:11:55.207Z,1.58
2023-03-12T02:14:43.798Z,1.60
2023-03-12T02:17:31.264Z,1.60
2023-03-12T02:20:23.402Z,1.56
2023-03-12T02:23:13.655Z,1.57
2023-03-12T02:26:03.347Z,1.57
2023-03-12T02:28:51.403Z,1.55
2023-03-12T02:31:41.823Z,1.60
2023-03-12T02:34:28.020Z,1.63
2023-03-12T02:37:14.189Z,1.67
2023-03-12T02:40:06.005Z,1.60
2023-03-12T02:42:55.400Z,1.61
2023-03-12T02:45:42.153Z,1.57
2023-03-12T02:48:31.345Z,1.62
2023-03-12T02:51:17.779Z,1.63
2023-03-12T02:54:03.958Z,1.67
2023-03-12T02:56:50.755Z,1.73
2023-03-12T02:59:39.150Z,1.72
2023-03-12T03:02:26.956Z,1.74
2023-03-12T03:05:13.839Z,1.75
2023-03-12T03:08:00.633Z,1.75
2023-03-12T03:10:47.510Z,1.76
2023-03-12T03:13:34.657Z,1.80
2023-03-12T03:16:23.579Z,1.82
2023-03-12T03:19:11.246Z,1.81
2023-03-12T03:21:57.656Z,1.85
2023-03-12T03:24:43.881Z,1.82
2023-03-12T03:27:37.228Z,1.87
2023-03-12T03:30:23.856Z,1.85
2023-03-12T03:33:13.602Z,1.89
2023-03-12T03:36:01.718Z,1.86
2023-03-12T03:38:50.641Z,1.84
2023-03-12T03:41:38.185Z,1.85
2023-03-12T03:44:24.389Z,1.80
2023-03-12T03:47:10.952Z,1.81
2023-03-12T03:49:58.863Z,1.92
2023-03-12T03:52:45.476Z,1.88
2023-03-12T03:55:32.220Z,1.88
2023-03-12T03:58:18.805Z,1.88
2023-03-12T04:01:06.172Z,1.89
2023-03-12T04:03:52.771Z,1.87
2023-03-12T04:06:40.495Z,1.92
2023-03-12T04:09:27.000Z,1.98
2023-03-12T04:12:13.172Z,2.00
2023-03-12T04:15:01.426Z,2.03
2023-03-12T04:17:48.276Z,2.01
2023-03-12T04:20:34.894Z,2.00
2023-03-12T04:23:22.591Z,2.04
2023-03-12T04:26:09.938Z,2.03
2023-03-12T04:28:56.534Z,2.02
2023-03-12T04:31:43.079Z,1.98
2023-03-12T04:34:29.554Z,1.95
2023-03-12T04:37:16.435Z,2.03
2023-03-12T04:40:07.840Z,1.97
2023-03-12T04:42:54.833Z,1.98
2023-03-12T04:45:42.627Z,1.86
2023-03-12T04:48:29.264Z,1.89
2023-03-12T04:51:15.865Z,1.96
2023-03-12T04:54:04.701Z,1.94
2023-03-12T04:56:52.987Z,1.95
2023-03-12T04:59:41.755Z,1.84
2023-03-12T05:02:28.744Z,1.90
2023-03-12T05:05:15.380Z,1.85
2023-03-12T05:08:01.537Z,1.88
2023-03-12T05:10:47.786Z,1.92
2023-03-12T05:13:38.032Z,1.99
2023-03-12T05:16:25.011Z,1.98
2023-03-12T05:19:11.564Z,2.03
2023-03-12T05:21:58.052Z,2.03
2023-03-12T05:24:44.491Z,2.05
2023-03-12T05:27:32.022Z,2.00
2023-03-12T05:30:20.441Z,2.06
2023-03-12T05:33:06.826Z,2.05
2023-03-12T05:35:53.724Z,2.08
2023-03-12T05:38:40.639Z,2.12
2023-03-12T05:41:29.924Z,2.11
2023-03-12T05:44:22.493Z,2.14
2023-03-12T05:47:13.794Z,2.20
2023-03-12T05:50:00.889Z,2.18
2023-03-12T05:52:50.358Z,2.17
2023-03-12T05:55:37.658Z,2.27
2023-03-12T05:58:24.359Z,2.17
2023-03-12T06:01:16.238Z,2.14
2023-03-12T06:04:04.916Z,2.15
2023-03-12T06:06:51.539Z,2.08
2023-03-12T06:09:38.024Z,2.10
2023-03-12T06:12:24.927Z,2.14
2023-03-12T06:15:12.154Z,2.13
2023-03-12T06:17:58.787Z,2.08
2023-03-12T06:20:46.714Z,2.18
2023-03-12T06:23:33.150Z,2.11
2023-03-12T06:26:21.031Z,2.17
2023-03-12T06:29:07.213Z,2.21
2023-03-12T06:31:53.857Z,2.30
2023-03-12T06:34:40.222Z,2.30
2023-03-12T06:37:28.120Z,2.30
2023-03-12T06:40:14.551Z,2.33
2023-03-12T06:43:00.759Z,2.33
2023-03-12T06:45:47.549Z,2.33
2023-03-12T06:48:36.775Z,2.37
2023-03-12T06:51:23.268Z,2.29
2023-03-12T06:54:10.901Z,2.31
2023-03-12T06:56:59.263Z,2.38
2023-03-12T06:59:45.547Z,2.42
2023-03-12T07:02:31.860Z,2.35
2023-03-12T07:05:18.406Z,2.43
2023-03-12T07:08:04.953Z,2.50
2023-03-12T07:10:52.481Z,2.40
2023-03-12T07:13:38.840Z,2.46
2023-03-12T07:16:25.447Z,2.53
2023-03-12T07:19:12.014Z,2.48
2023-03-12T07:21:58.481Z,2.58
2023-03-12T07:24:44.678Z,2.52
2023-03-12T07:27:32.207Z,2.42
2023-03-12T07:30:18.949Z,2.50
2023-03-12T07:33:06.393Z,2.52
2023-03-12T07:35:52.655Z,2.52
2023-03-12T07:38:39.054Z,2.69
2023-03-12T07:41:25.569Z,2.82
2023-03-12T07:44:13.397Z,2.88
2023-03-12T07:47:09.761Z,2.86
2023-03-12T07:50:03.388Z,2.88
2023-03-12T07:52:50.074Z,2.93
2023-03-12T07:55:36.457Z,2.80
2023-03-12T07:58:23.206Z,2.95
2023-03-12T08:01:10.849Z,2.94
2023-03-12T08:03:57.540Z,3.05
2023-03-12T08:06:44.456Z,3.00
2023-03-12T08:09:30.750Z,3.06
2023-03-12T08:12:17.198Z,3.19
2023-03-12T08:15:03.765Z,3.19
2023-03-12T08:17:51.347Z,3.29
2023-03-12T08:20:37.761Z,3.28
2023-03-12T08:23:24.597Z,3.27
2023-03-12T08:26:10.702Z,3.41
2023-03-12T08:28:57.154Z,3.41
2023-03-12T08:32:01.564Z,3.39
2023-03-12T08:34:51.653Z,3.55
2023-03-12T08:37:38.189Z,3.69
2023-03-12T08:40:24.690Z,3.70
2023-03-12T08:43:10.744Z,3.70
2023-03-12T08:45:57.977Z,3.88
2023-03-12T08:48:44.609Z,3.93
2023-03-12T08:51:32.332Z,3.93
2023-03-12T08:54:19.400Z,4.02
2023-03-12T08:57:06.063Z,4.06
2023-03-12T08:59:52.489Z,4.20
2023-03-12T09:02:39.368Z,4.32
2023-03-12T09:05:26.108Z,4.26
2023-03-12T09:08:13.581Z,4.50
2023-03-12T09:10:59.999Z,4.52
2023-03-12T09:16:52.964Z,4.86
2023-03-12T09:19:39.366Z,4.96
2023-03-12T09:22:25.525Z,5.07
2023-03-12T09:25:13.680Z,5.31
2023-03-12T09:28:02.078Z,5.29
2023-03-12T09:30:48.887Z,5.43
2023-03-12T09:33:35.934Z,5.55
2023-03-12T09:36:22.275Z,5.71
2023-03-12T09:39:08.863Z,5.84
2023-03-12T09:41:56.835Z,5.79
2023-03-12T09:44:46.706Z,6.05
2023-03-12T09:47:36.492Z,6.21
2023-03-12T09:50:27.930Z,6.43
2023-03-12T09:53:20.949Z,6.42
2023-03-12T09:56:13.465Z,6.67
2023-03-12T09:59:02.248Z,6.63
2023-03-12T10:01:53.321Z,6.77
2023-03-12T10:04:58.596Z,6.77
2023-03-12T10:07:53.241Z,6.97
2023-03-12T10:10:54.888Z,7.02
2023-03-12T10:13:53.780Z,7.17
2023-03-12T10:16:55.496Z,7.45
2023-03-12T10:20:02.208Z,7.45
2023-03-12T10:22:57.173Z,7.80
2023-03-12T10:25:51.954Z,7.88
2023-03-12T10:28:43.271Z,8.11
2023-03-12T10:31:35.705Z,8.09
2023-03-12T10:34:30.738Z,8.21
2023-03-12T10:37:22.067Z,8.16
2023-03-12T10:40:16.342Z,8.39
2023-03-12T10:43:03.471Z,8.80
2023-03-12T10:46:00.957Z,9.03
2023-03-12T10:48:47.476Z,9.09
2023-03-12T10:51:54.194Z,8.93
2023-03-12T10:54:44.740Z,8.92
2023-03-12T10:57:41.172Z,8.80
2023-03-12T11:00:29.829Z,8.85
2023-03-12T11:03:22.383Z,9.08
2023-03-12T11:06:15.773Z,9.01
2023-03-12T11:09:17.484Z,8.97
2023-03-12T11:12:23.175Z,8.99
2023-03-12T11:15:23.604Z,9.07
2023-03-12T11:18:36.091Z,9.31
2023-03-12T11:21:25.556Z,9.36
2023-03-12T11:24:17.261Z,9.39
2023-03-12T11:27:06.950Z,9.39
2023-03-12T11:29:55.353Z,9.48
2023-03-12T11:32:46.326Z,9.55
2023-03-12T11:35:46.426Z,9.16
2023-03-12T11:38:39.348Z,9.16
2023-03-12T11:41:40.554Z,9.38
2023-03-12T11:44:33.523Z,9.39
2023-03-12T11:47:40.765Z,9.70
2023-03-12T11:50:34.341Z,9.60
2023-03-12T11:53:34.240Z,9.45
2023-03-12T11:56:30.586Z,9.41
2023-03-12T11:59:36.832Z,9.41
2023-03-12T12:02:41.725Z,9.56
2023-03-12T12:05:37.525Z,9.77
2023-03-12T12:08:44.887Z,9.70
2023-03-12T12:11:41.743Z,9.80
2023-03-12T12:14:42.109Z,9.89
2023-03-12T12:17:34.619Z,9.86
2023-03-12T12:20:28.818Z,9.98
2023-03-12T12:23:23.728Z,10.33
2023-03-12T12:26:13.413Z,10.02
2023-03-12T12:29:17.521Z,9.94
2023-03-12T12:32:06.927Z,9.98
2023-03-12T12:35:14.263Z,9.97
2023-03-12T12:38:06.164Z,9.87
2023-03-12T12:40:56.510Z,9.97
2023-03-12T12:43:47.659Z,9.94
2023-03-12T12:46:39.030Z,9.89
2023-03-12T12:49:30.528Z,10.12
2023-03-12T12:52:20.194Z,10.24
2023-03-12T12:55:15.628Z,10.48
2023-03-12T12:58:05.833Z,10.76
2023-03-12T13:00:55.561Z,10.48
2023-03-12T13:03:44.687Z,10.89
2023-03-12T13:06:55.321Z,10.99
2023-03-12T13:09:43.435Z,10.93
2023-03-12T13:12:32.666Z,10.55
2023-03-12T13:15:40.023Z,10.49
2023-03-12T13:18:28.747Z,10.51
2023-03-12T13:21:25.493Z,10.73
2023-03-12T13:24:23.542Z,10.47
2023-03-12T13:27:18.994Z,10.82
2023-03-12T13:30:40.231Z,10.70
2023-03-12T13:33:40.933Z,10.72
2023-03-12T13:36:30.667Z,10.84
2023-03-12T13:39:28.836Z,10.86
2023-03-12T13:42:37.750Z,11.16
2023-03-12T13:45:27.971Z,11.32
2023-03-12T13:48:18.073Z,11.28
2023-03-12T13:51:16.316Z,11.79
2023-03-12T13:54:04.871Z,11.69
2023-03-12T13:56:58.521Z,11.66
2023-03-12T13:59:46.650Z,11.58
2023-03-12T14:02:37.713Z,11.60
2023-03-12T14:05:24.296Z,11.42
2023-03-12T14:08:27.781Z,11.32
2023-03-12T14:11:24.710Z,11.23
2023-03-12T14:14:45.763Z,11.17
2023-03-12T14:17:34.489Z,11.20
2023-03-12T14:20:23.095Z,10.89
2023-03-12T14:23:16.358Z,10.93
2023-03-12T14:26:04.544Z,11.22
2023-03-12T14:28:58.661Z,11.21
2023-03-12T14:31:46.024Z,11.13
2023-03-12T14:34:39.652Z,11.40
2023-03-12T14:37:31.641Z,11.45
2023-03-12T14:40:25.352Z,11.61
2023-03-12T14:43:23.613Z,11.82
2023-03-12T14:46:18.835Z,11.63
2023-03-12T14:49:05.188Z,11.87
2023-03-12T14:51:51.516Z,11.40
2023-03-12T14:54:39.631Z,11.76
2023-03-12T14:57:25.956Z,11.59
2023-03-12T15:00:24.348Z,11.68
2023-03-12T15:03:16.882Z,11.49
2023-03-12T15:06:03.129Z,11.51
2023-03-12T15:08:49.954Z,11.14
2023-03-12T15:11:38.566Z,11.40
2023-03-12T15:14:28.185Z,11.26
2023-03-12T15:17:17.901Z,11.31
2023-03-12T15:20:16.215Z,11.32
2023-03-12T15:23:04.517Z,11.29
2023-03-12T15:26:09.758Z,11.06
2023-03-12T15:28:57.737Z,11.02
2023-03-12T15:31:45.081Z,11.08
2023-03-12T15:34:34.106Z,11.17
2023-03-12T15:37:32.381Z,11.17
2023-03-12T15:40:23.278Z,11.09
2023-03-12T15:43:19.122Z,10.90
2023-03-12T15:46:08.007Z,10.79
2023-03-12T15:49:00.294Z,10.81
2023-03-12T15:51:59.726Z,10.85
2023-03-12T15:55:04.661Z,10.70
2023-03-12T15:57:52.915Z,10.79
2023-03-12T16:00:44.540Z,10.75
2023-03-12T16:03:31.280Z,10.61
2023-03-12T16:06:23.204Z,10.58
2023-03-12T16:09:15.787Z,10.42
2023-03-12T16:12:04.026Z,10.46
2023-03-12T16:14:50.741Z,10.42
2023-03-12T16:17:37.629Z,10.47
2023-03-12T16:20:26.276Z,10.44
2023-03-12T16:23:12.862Z,10.39
2023-03-12T16:26:00.124Z,10.47
2023-03-12T16:28:51.231Z,10.35
2023-03-12T16:31:37.807Z,10.47
2023-03-12T16:34:24.113Z,10.33
2023-03-12T16:37:11.956Z,10.28
2023-03-12T16:40:00.095Z,10.27
2023-03-12T16:42:49.731Z,10.12
2023-03-12T16:45:38.430Z,10.26
2023-03-12T16:48:26.376Z,10.14
2023-03-12T16:51:15.724Z,10.14
2023-03-12T16:54:10.311Z,9.95
2023-03-12T16:56:58.012Z,9.75
2023-03-12T16:59:44.569Z,9.76
2023-03-12T17:02:32.722Z,9.79
2023-03-12T17:05:19.213Z,9.71
2023-03-12T17:08:05.929Z,9.62
2023-03-12T17:10:52.396Z,9.58
2023-03-12T17:13:38.568Z,9.59
2023-03-12T17:16:26.019Z,9.47
2023-03-12T17:19:14.189Z,9.51
2023-03-12T17:22:01.586Z,9.44
2023-03-12T17:24:47.848Z,9.37
2023-03-12T17:27:34.215Z,9.40
2023-03-12T17:30:21.997Z,9.38
2023-03-12T17:33:10.790Z,9.38
2023-03-12T17:36:00.527Z,9.34
2023-03-12T17:38:48.000Z,9.35
2023-03-12T17:41:35.800Z,9.30
2023-03-12T17:44:22.068Z,9.42
2023-03-12T17:47:08.229Z,9.45
2023-03-12T17:49:54.383Z,9.61
2023-03-12T17:52:42.291Z,9.60
2023-03-12T17:55:28.766Z,9.74
2023-03-12T17:58:15.036Z,9.69
2023-03-12T18:01:01.230Z,9.77
2023-03-12T18:03:47.932Z,9.76
2023-03-12T18:06:34.460Z,9.75
2023-03-12T18:09:22.069Z,9.76
2023-03-12T18:12:09.598Z,9.86
2023-03-12T18:14:56.184Z,9.78
2023-03-12T18:17:44.512Z,9.79
2023-03-12T18:20:38.644Z,9.75
2023-03-12T18:23:26.485Z,9.72
2023-03-12T18:26:15.848Z,9.75
2023-03-12T18:29:02.600Z,9.77
2023-03-12T18:31:49.204Z,9.78
2023-03-12T18:34:35.793Z,9.68
2023-03-12T18:37:23.018Z,9.79
2023-03-12T18:40:10.920Z,9.71
2023-03-12T18:43:00.262Z,9.67
2023-03-12T18:45:47.300Z,9.83
2023-03-12T18:48:33.601Z,9.79
2023-03-12T18:51:20.557Z,9.73
2023-03-12T18:54:07.043Z,9.68
2023-03-12T18:56:53.421Z,9.71
2023-03-12T18:59:45.113Z,9.76
2023-03-12T19:02:31.350Z,9.77
2023-03-12T19:05:18.296Z,9.83
2023-03-12T19:08:04.994Z,9.95
2023-03-12T19:10:51.290Z,9.78
2023-03-12T19:13:38.343Z,9.93
2023-03-12T19:16:26.132Z,9.79
2023-03-12T19:19:14.634Z,9.80
2023-03-12T19:22:02.087Z,9.83
2023-03-12T19:24:48.404Z,9.81
2023-03-12T19:27:35.102Z,9.75
2023-03-12T19:30:21.318Z,9.93
2023-03-12T19:33:08.936Z,10.01
2023-03-12T19:35:56.268Z,9.89
2023-03-12T19:38:43.008Z,9.96
2023-03-12T19:41:29.128Z,9.91
2023-03-12T19:44:15.424Z,9.63
2023-03-12T19:47:02.243Z,9.61
2023-03-12T19:49:49.955Z,9.61
2023-03-12T19:52:36.387Z,9.74
2023-03-12T19:55:23.278Z,9.79
2023-03-12T19:58:12.229Z,9.68
2023-03-12T20:01:00.374Z,9.78
2023-03-12T20:03:47.020Z,9.69
2023-03-12T20:06:34.834Z,9.79
2023-03-12T20:09:21.073Z,9.86
2023-03-12T20:12:07.938Z,9.74
2023-03-12T20:14:54.002Z,9.56
2023-03-12T20:17:40.496Z,9.76
2023-03-12T20:20:26.995Z,9.77
2023-03-12T20:23:14.647Z,9.86
2023-03-12T20:26:01.112Z,9.91
2023-03-12T20:28:47.617Z,9.82
2023-03-12T20:31:34.144Z,9.85
2023-03-12T20:34:20.407Z,9.80
2023-03-12T20:37:07.053Z,9.76
2023-03-12T20:39:54.762Z,9.66
2023-03-12T20:42:41.604Z,9.68
2023-03-12T20:45:27.642Z,9.65
2023-03-12T20:48:14.013Z,9.57
2023-03-12T20:51:00.572Z,9.56
2023-03-12T20:53:47.143Z,9.29
2023-03-12T20:56:34.876Z,9.43
2023-03-12T20:59:21.320Z,9.39
2023-03-12T21:02:08.360Z,9.48
2023-03-12T21:04:54.674Z,9.63
2023-03-12T21:07:41.542Z,9.62
2023-03-12T21:10:28.439Z,9.52
2023-03-12T21:13:16.624Z,9.52
2023-03-12T21:16:06.297Z,9.42
2023-03-12T21:18:56.832Z,9.51
2023-03-12T21:21:43.027Z,9.45
2023-03-12T21:24:29.147Z,9.48
2023-03-12T21:27:15.597Z,9.31
2023-03-12T21:30:03.282Z,9.36
2023-03-12T21:32:49.901Z,9.20
2023-03-12T21:35:36.548Z,9.20
2023-03-12T21:38:22.742Z,9.22
2023-03-12T21:41:11.163Z,9.17
2023-03-12T21:44:01.899Z,9.17
2023-03-12T21:46:49.301Z,9.16
2023-03-12T21:49:36.152Z,8.95
2023-03-12T21:52:22.633Z,8.89
2023-03-12T21:55:10.058Z,8.76
2023-03-12T21:57:56.318Z,8.72
2023-03-12T22:00:42.872Z,8.82
2023-03-12T22:03:30.548Z,8.87
2023-03-12T22:06:17.509Z,8.78
2023-03-12T22:09:03.912Z,8.87
2023-03-12T22:11:50.304Z,8.82
2023-03-12T22:14:36.754Z,8.81
2023-03-12T22:17:22.891Z,8.74
2023-03-12T22:20:12.213Z,8.73
2023-03-12T22:22:58.554Z,8.73
2023-03-12T22:25:44.840Z,8.77
2023-03-12T22:28:32.113Z,8.72
2023-03-12T22:31:19.328Z,8.69
2023-03-12T22:34:05.949Z,8.68
2023-03-12T22:36:53.644Z,8.72
2023-03-12T22:39:40.888Z,8.76
2023-03-12T22:42:27.350Z,8.75
2023-03-12T22:45:13.889Z,8.77
2023-03-12T22:48:00.327Z,8.71
2023-03-12T22:50:54.029Z,8.69
2023-03-12T22:53:41.675Z,8.69
2023-03-12T22:56:28.306Z,8.74
2023-03-12T22:59:14.532Z,8.67
2023-03-12T23:02:00.877Z,8.66
2023-03-12T23:04:47.178Z,8.66
2023-03-12T23:07:33.741Z,8.57
2023-03-12T23:10:21.620Z,8.54
2023-03-12T23:13:09.258Z,8.52
2023-03-12T23:15:55.672Z,8.50
2023-03-12T23:18:42.883Z,8.49
2023-03-12T23:21:29.958Z,8.46
2023-03-12T23:24:15.937Z,8.59
2023-03-12T23:27:03.737Z,8.54
2023-03-12T23:29:49.762Z,8.52
2023-03-12T23:32:36.081Z,8.49
2023-03-12T23:35:22.747Z,8.50
2023-03-12T23:38:09.198Z,8.59
2023-03-12T23:41:00.239Z,8.50
2023-03-12T23:43:47.897Z,8.60
2023-03-12T23:46:34.822Z,8.60
2023-03-12T23:49:21.066Z,8.58
2023-03-12T23:52:07.789Z,8.66
2023-03-12T23:54:53.981Z,8.72
2023-03-12T23:57:40.155Z,8.70
